sensor_id;sensor_type;location;lat;lon;timestamp;P1;durP1;ratioP1;P2;durP2;ratioP2
79064;SDS011;68469;51.502;7.462;2023-10-09T00:02:04;15.25;;;10.65;;
79064;SDS011;68469;51.502;7.462;2023-10-09T00:04:34;19.15;;;11.98;;
79064;SDS011;68469;51.502;7.462;2023-10-09T00:07:01;20.83;;;12.18;;
79064;SDS011;68469;51.502;7.462;2023-10-09T00:09:34;16.88;;;10.55;;
79064;SDS011;68469;51.502;7.462;2023-10-09T00:12:11;19.77;;;12.30;;
79064;SDS011;68469;51.502;7.462;2023-10-09T00:14:41;19.35;;;11.23;;
79064;SDS011;68469;51.502;7.462;2023-10-09T00:17:14;16.85;;;11.25;;
79064;SDS011;68469;51.502;7.462;2023-10-09T00:19:40;18.77;;;11.73;;
79064;SDS011;68469;51.502;7.462;2023-10-09T00:22:08;18.95;;;10.60;;
79064;SDS011;68469;51.502;7.462;2023-10-09T00:24:43;18.75;;;11.45;;
79064;SDS011;68469;51.502;7.462;2023-10-09T00:27:11;15.15;;;11.43;;
79064;SDS011;68469;51.502;7.462;2023-10-09T00:29:37;19.50;;;11.93;;
79064;SDS011;68469;51.502;7.462;2023-10-09T00:32:09;17.02;;;10.60;;
79064;SDS011;68469;51.502;7.462;2023-10-09T00:34:39;16.30;;;10.88;;
79064;SDS011;68469;51.502;7.462;2023-10-09T00:37:05;15.82;;;10.65;;
79064;SDS011;68469;51.502;7.462;2023-10-09T00:39:35;20.63;;;10.48;;
79064;SDS011;68469;51.502;7.462;2023-10-09T00:42:01;15.55;;;10.48;;
79064;SDS011;68469;51.502;7.462;2023-10-09T00:44:28;17.48;;;11.02;;
79064;SDS011;68469;51.502;7.462;2023-10-09T00:47:04;18.73;;;10.77;;
79064;SDS011;68469;51.502;7.462;2023-10-09T00:49:46;16.30;;;11.17;;
79064;SDS011;68469;51.502;7.462;2023-10-09T00:52:13;20.02;;;10.73;;
79064;SDS011;68469;51.502;7.462;2023-10-09T00:54:48;16.52;;;10.88;;
79064;SDS011;68469;51.502;7.462;2023-10-09T00:57:17;20.85;;;11.00;;
79064;SDS011;68469;51.502;7.462;2023-10-09T00:59:47;20.23;;;10.23;;
79064;SDS011;68469;51.502;7.462;2023-10-09T01:02:24;19.23;;;11.32;;
79064;SDS011;68469;51.502;7.462;2023-10-09T01:05:07;18.23;;;10.88;;
79064;SDS011;68469;51.502;7.462;2023-10-09T01:07:45;19.02;;;11.75;;
79064;SDS011;68469;51.502;7.462;2023-10-09T01:10:12;17.27;;;10.55;;
79064;SDS011;68469;51.502;7.462;2023-10-09T01:12:41;21.73;;;11.70;;
79064;SDS011;68469;51.502;7.462;2023-10-09T01:15:09;15.65;;;10.55;;
79064;SDS011;68469;51.502;7.462;2023-10-09T01:17:55;18.10;;;9.82;;
79064;SDS011;68469;51.502;7.462;2023-10-09T01:20:23;16.92;;;10.98;;
79064;SDS011;68469;51.502;7.462;2023-10-09T01:23:01;18.42;;;10.52;;
79064;SDS011;68469;51.502;7.462;2023-10-09T01:25:27;18.10;;;10.38;;
79064;SDS011;68469;51.502;7.462;2023-10-09T01:28:06;16.38;;;9.90;;
79064;SDS011;68469;51.502;7.462;2023-10-09T01:30:32;15.50;;;9.90;;
79064;SDS011;68469;51.502;7.462;2023-10-09T01:32:58;16.73;;;9.77;;
79064;SDS011;68469;51.502;7.462;2023-10-09T01:35:36;19.33;;;10.63;;
79064;SDS011;68469;51.502;7.462;2023-10-09T01:38:11;17.30;;;9.88;;
79064;SDS011;68469;51.502;7.462;2023-10-09T01:40:39;16.52;;;10.00;;
79064;SDS011;68469;51.502;7.462;2023-10-09T01:43:05;17.50;;;9.77;;
79064;SDS011;68469;51.502;7.462;2023-10-09T01:45:35;15.35;;;9.80;;
79064;SDS011;68469;51.502;7.462;2023-10-09T01:48:07;16.80;;;9.73;;
79064;SDS011;68469;51.502;7.462;2023-10-09T01:50:34;16.17;;;9.48;;
79064;SDS011;68469;51.502;7.462;2023-10-09T01:53:06;16.05;;;8.57;;
79064;SDS011;68469;51.502;7.462;2023-10-09T01:55:33;16.20;;;10.35;;
79064;SDS011;68469;51.502;7.462;2023-10-09T01:58:01;13.75;;;9.20;;
79064;SDS011;68469;51.502;7.462;2023-10-09T02:00:50;15.20;;;9.52;;
79064;SDS011;68469;51.502;7.462;2023-10-09T02:03:26;16.23;;;9.57;;
79064;SDS011;68469;51.502;7.462;2023-10-09T02:05:54;13.07;;;8.95;;
79064;SDS011;68469;51.502;7.462;2023-10-09T02:08:28;16.25;;;9.50;;
79064;SDS011;68469;51.502;7.462;2023-10-09T02:10:55;15.77;;;9.73;;
79064;SDS011;68469;51.502;7.462;2023-10-09T02:13:21;12.80;;;9.07;;
79064;SDS011;68469;51.502;7.462;2023-10-09T02:15:56;15.02;;;8.82;;
79064;SDS011;68469;51.502;7.462;2023-10-09T02:18:40;14.27;;;8.50;;
79064;SDS011;68469;51.502;7.462;2023-10-09T02:21:18;14.57;;;8.90;;
79064;SDS011;68469;51.502;7.462;2023-10-09T02:23:54;13.52;;;9.20;;
79064;SDS011;68469;51.502;7.462;2023-10-09T02:26:22;16.42;;;9.10;;
79064;SDS011;68469;51.502;7.462;2023-10-09T02:28:55;12.32;;;8.65;;
79064;SDS011;68469;51.502;7.462;2023-10-09T02:31:24;13.10;;;8.68;;
79064;SDS011;68469;51.502;7.462;2023-10-09T02:33:53;17.88;;;9.45;;
79064;SDS011;68469;51.502;7.462;2023-10-09T02:36:21;13.00;;;8.27;;
79064;SDS011;68469;51.502;7.462;2023-10-09T02:38:47;13.63;;;8.50;;
79064;SDS011;68469;51.502;7.462;2023-10-09T02:41:16;13.82;;;8.75;;
79064;SDS011;68469;51.502;7.462;2023-10-09T02:43:42;16.75;;;9.52;;
79064;SDS011;68469;51.502;7.462;2023-10-09T02:46:14;10.88;;;8.40;;
79064;SDS011;68469;51.502;7.462;2023-10-09T02:48:58;14.02;;;9.57;;
79064;SDS011;68469;51.502;7.462;2023-10-09T02:51:24;13.27;;;8.32;;
79064;SDS011;68469;51.502;7.462;2023-10-09T02:53:51;12.18;;;8.63;;
79064;SDS011;68469;51.502;7.462;2023-10-09T02:56:21;14.85;;;7.93;;
79064;SDS011;68469;51.502;7.462;2023-10-09T02:59:01;12.32;;;7.93;;
79064;SDS011;68469;51.502;7.462;2023-10-09T03:01:34;12.40;;;8.32;;
79064;SDS011;68469;51.502;7.462;2023-10-09T03:04:02;14.65;;;9.07;;
79064;SDS011;68469;51.502;7.462;2023-10-09T03:06:31;14.68;;;9.50;;
79064;SDS011;68469;51.502;7.462;2023-10-09T03:08:59;9.50;;;7.28;;
79064;SDS011;68469;51.502;7.462;2023-10-09T03:11:25;13.82;;;8.90;;
79064;SDS011;68469;51.502;7.462;2023-10-09T03:13:53;14.65;;;7.75;;
79064;SDS011;68469;51.502;7.462;2023-10-09T03:16:20;14.38;;;8.20;;
79064;SDS011;68469;51.502;7.462;2023-10-09T03:18:46;18.80;;;8.88;;
79064;SDS011;68469;51.502;7.462;2023-10-09T03:21:13;11.90;;;8.45;;
79064;SDS011;68469;51.502;7.462;2023-10-09T03:23:39;11.88;;;8.07;;
79064;SDS011;68469;51.502;7.462;2023-10-09T03:26:14;13.23;;;8.75;;
79064;SDS011;68469;51.502;7.462;2023-10-09T03:28:43;11.48;;;7.97;;
79064;SDS011;68469;51.502;7.462;2023-10-09T03:31:10;11.30;;;7.80;;
79064;SDS011;68469;51.502;7.462;2023-10-09T03:33:36;13.40;;;8.13;;
79064;SDS011;68469;51.502;7.462;2023-10-09T03:36:03;15.15;;;8.50;;
79064;SDS011;68469;51.502;7.462;2023-10-09T03:38:32;13.40;;;8.52;;
79064;SDS011;68469;51.502;7.462;2023-10-09T03:41:02;13.63;;;8.45;;
79064;SDS011;68469;51.502;7.462;2023-10-09T03:43:35;13.15;;;9.18;;
79064;SDS011;68469;51.502;7.462;2023-10-09T03:46:07;14.15;;;8.15;;
79064;SDS011;68469;51.502;7.462;2023-10-09T03:51:27;14.38;;;9.18;;
79064;SDS011;68469;51.502;7.462;2023-10-09T03:53:53;14.90;;;9.32;;
79064;SDS011;68469;51.502;7.462;2023-10-09T03:56:19;12.60;;;8.35;;
79064;SDS011;68469;51.502;7.462;2023-10-09T03:58:49;14.23;;;8.90;;
79064;SDS011;68469;51.502;7.462;2023-10-09T04:01:16;16.90;;;9.05;;
79064;SDS011;68469;51.502;7.462;2023-10-09T04:03:49;14.75;;;10.10;;
79064;SDS011;68469;51.502;7.462;2023-10-09T04:06:20;15.85;;;9.65;;
79064;SDS011;68469;51.502;7.462;2023-10-09T04:08:48;15.07;;;9.85;;
79064;SDS011;68469;51.502;7.462;2023-10-09T04:11:16;12.52;;;8.75;;
79064;SDS011;68469;51.502;7.462;2023-10-09T04:13:42;15.73;;;8.98;;
79064;SDS011;68469;51.502;7.462;2023-10-09T04:16:11;14.88;;;9.43;;
79064;SDS011;68469;51.502;7.462;2023-10-09T04:18:55;18.90;;;10.23;;
79064;SDS011;68469;51.502;7.462;2023-10-09T04:21:22;15.73;;;8.95;;
79064;SDS011;68469;51.502;7.462;2023-10-09T04:26:48;19.25;;;9.20;;
79064;SDS011;68469;51.502;7.462;2023-10-09T04:29:20;14.68;;;8.85;;
79064;SDS011;68469;51.502;7.462;2023-10-09T04:31:53;14.03;;;8.63;;
79064;SDS011;68469;51.502;7.462;2023-10-09T04:34:22;14.50;;;9.52;;
79064;SDS011;68469;51.502;7.462;2023-10-09T04:36:49;13.32;;;8.55;;
79064;SDS011;68469;51.502;7.462;2023-10-09T04:39:16;14.50;;;8.70;;
79064;SDS011;68469;51.502;7.462;2023-10-09T04:42:00;13.23;;;8.07;;
79064;SDS011;68469;51.502;7.462;2023-10-09T04:45:01;13.20;;;8.23;;
79064;SDS011;68469;51.502;7.462;2023-10-09T04:47:27;12.77;;;8.45;;
79064;SDS011;68469;51.502;7.462;2023-10-09T04:52:35;12.00;;;8.13;;
79064;SDS011;68469;51.502;7.462;2023-10-09T04:55:01;15.13;;;8.40;;
79064;SDS011;68469;51.502;7.462;2023-10-09T04:57:36;11.95;;;7.43;;
79064;SDS011;68469;51.502;7.462;2023-10-09T05:03:00;11.00;;;8.35;;
79064;SDS011;68469;51.502;7.462;2023-10-09T05:08:14;11.95;;;7.50;;
79064;SDS011;68469;51.502;7.462;2023-10-09T05:16:09;15.80;;;7.53;;
79064;SDS011;68469;51.502;7.462;2023-10-09T05:18:43;12.73;;;8.10;;
79064;SDS011;68469;51.502;7.462;2023-10-09T05:21:10;10.95;;;7.10;;
79064;SDS011;68469;51.502;7.462;2023-10-09T05:23:55;13.93;;;7.50;;
79064;SDS011;68469;51.502;7.462;2023-10-09T05:26:39;11.40;;;7.28;;
79064;SDS011;68469;51.502;7.462;2023-10-09T05:29:12;12.82;;;7.95;;
79064;SDS011;68469;51.502;7.462;2023-10-09T05:31:56;10.90;;;7.47;;
79064;SDS011;68469;51.502;7.462;2023-10-09T05:34:22;10.77;;;7.18;;
79064;SDS011;68469;51.502;7.462;2023-10-09T05:36:51;14.38;;;7.68;;
79064;SDS011;68469;51.502;7.462;2023-10-09T05:39:17;12.23;;;6.93;;
79064;SDS011;68469;51.502;7.462;2023-10-09T05:42:02;14.55;;;7.75;;
79064;SDS011;68469;51.502;7.462;2023-10-09T05:44:34;11.98;;;8.00;;
79064;SDS011;68469;51.502;7.462;2023-10-09T05:47:18;10.57;;;7.05;;
79064;SDS011;68469;51.502;7.462;2023-10-09T05:49:59;10.88;;;6.78;;
79064;SDS011;68469;51.502;7.462;2023-10-09T05:52:34;11.43;;;7.53;;
79064;SDS011;68469;51.502;7.462;2023-10-09T05:55:02;12.63;;;6.85;;
79064;SDS011;68469;51.502;7.462;2023-10-09T05:57:47;10.23;;;7.28;;
79064;SDS011;68469;51.502;7.462;2023-10-09T06:00:31;10.93;;;7.63;;
79064;SDS011;68469;51.502;7.462;2023-10-09T06:03:15;9.30;;;6.82;;
79064;SDS011;68469;51.502;7.462;2023-10-09T06:05:49;11.40;;;7.57;;
79064;SDS011;68469;51.502;7.462;2023-10-09T06:08:17;11.70;;;7.82;;
79064;SDS011;68469;51.502;7.462;2023-10-09T06:13:30;13.15;;;7.50;;
79064;SDS011;68469;51.502;7.462;2023-10-09T06:16:03;12.70;;;7.50;;
79064;SDS011;68469;51.502;7.462;2023-10-09T06:18:55;12.55;;;7.90;;
79064;SDS011;68469;51.502;7.462;2023-10-09T06:21:33;11.45;;;7.60;;
79064;SDS011;68469;51.502;7.462;2023-10-09T06:24:18;12.38;;;7.22;;
79064;SDS011;68469;51.502;7.462;2023-10-09T06:27:06;14.65;;;8.35;;
79064;SDS011;68469;51.502;7.462;2023-10-09T06:29:31;13.07;;;8.25;;
79064;SDS011;68469;51.502;7.462;2023-10-09T06:32:03;13.40;;;8.02;;
79064;SDS011;68469;51.502;7.462;2023-10-09T06:34:57;12.15;;;7.60;;
79064;SDS011;68469;51.502;7.462;2023-10-09T06:43:17;11.45;;;7.18;;
79064;SDS011;68469;51.502;7.462;2023-10-09T06:45:47;11.35;;;7.40;;
79064;SDS011;68469;51.502;7.462;2023-10-09T06:48:34;13.65;;;8.40;;
79064;SDS011;68469;51.502;7.462;2023-10-09T06:53:33;10.15;;;7.85;;
79064;SDS011;68469;51.502;7.462;2023-10-09T06:56:17;12.38;;;7.32;;
79064;SDS011;68469;51.502;7.462;2023-10-09T06:59:05;11.07;;;7.50;;
79064;SDS011;68469;51.502;7.462;2023-10-09T07:01:46;13.50;;;8.02;;
79064;SDS011;68469;51.502;7.462;2023-10-09T07:04:16;11.20;;;7.55;;
79064;SDS011;68469;51.502;7.462;2023-10-09T07:06:45;12.93;;;7.80;;
79064;SDS011;68469;51.502;7.462;2023-10-09T07:09:11;14.13;;;7.90;;
79064;SDS011;68469;51.502;7.462;2023-10-09T07:11:41;12.70;;;7.88;;
79064;SDS011;68469;51.502;7.462;2023-10-09T07:14:12;14.38;;;8.07;;
79064;SDS011;68469;51.502;7.462;2023-10-09T07:17:06;13.32;;;7.63;;
79064;SDS011;68469;51.502;7.462;2023-10-09T07:19:51;9.90;;;7.35;;
79064;SDS011;68469;51.502;7.462;2023-10-09T07:22:21;10.93;;;7.88;;
79064;SDS011;68469;51.502;7.462;2023-10-09T07:24:47;16.98;;;8.50;;
79064;SDS011;68469;51.502;7.462;2023-10-09T07:27:24;15.35;;;7.72;;
79064;SDS011;68469;51.502;7.462;2023-10-09T07:30:14;13.63;;;8.55;;
79064;SDS011;68469;51.502;7.462;2023-10-09T07:35:48;13.32;;;8.00;;
79064;SDS011;68469;51.502;7.462;2023-10-09T07:38:25;12.65;;;7.80;;
79064;SDS011;68469;51.502;7.462;2023-10-09T07:40:55;13.20;;;7.15;;
79064;SDS011;68469;51.502;7.462;2023-10-09T07:43:22;13.20;;;7.28;;
79064;SDS011;68469;51.502;7.462;2023-10-09T07:45:54;15.10;;;9.07;;
79064;SDS011;68469;51.502;7.462;2023-10-09T07:48:23;11.20;;;7.50;;
79064;SDS011;68469;51.502;7.462;2023-10-09T07:51:03;12.27;;;7.78;;
79064;SDS011;68469;51.502;7.462;2023-10-09T07:53:36;12.80;;;8.18;;
79064;SDS011;68469;51.502;7.462;2023-10-09T07:56:08;13.75;;;9.15;;
79064;SDS011;68469;51.502;7.462;2023-10-09T07:58:34;14.25;;;8.50;;
79064;SDS011;68469;51.502;7.462;2023-10-09T08:01:11;13.35;;;8.63;;
79064;SDS011;68469;51.502;7.462;2023-10-09T08:03:56;22.48;;;10.65;;
79064;SDS011;68469;51.502;7.462;2023-10-09T08:06:30;19.80;;;9.95;;
79064;SDS011;68469;51.502;7.462;2023-10-09T08:09:07;14.82;;;9.20;;
79064;SDS011;68469;51.502;7.462;2023-10-09T08:11:42;15.38;;;8.48;;
79064;SDS011;68469;51.502;7.462;2023-10-09T08:14:39;16.08;;;9.18;;
79064;SDS011;68469;51.502;7.462;2023-10-09T08:17:08;14.00;;;8.63;;
79064;SDS011;68469;51.502;7.462;2023-10-09T08:19:40;12.00;;;8.30;;
79064;SDS011;68469;51.502;7.462;2023-10-09T08:22:22;15.43;;;8.15;;
79064;SDS011;68469;51.502;7.462;2023-10-09T08:24:48;14.65;;;8.60;;
79064;SDS011;68469;51.502;7.462;2023-10-09T08:29:55;13.25;;;8.48;;
79064;SDS011;68469;51.502;7.462;2023-10-09T08:32:43;15.43;;;8.82;;
79064;SDS011;68469;51.502;7.462;2023-10-09T08:35:26;15.48;;;8.98;;
79064;SDS011;68469;51.502;7.462;2023-10-09T08:37:58;12.73;;;7.93;;
79064;SDS011;68469;51.502;7.462;2023-10-09T08:40:35;13.32;;;8.45;;
79064;SDS011;68469;51.502;7.462;2023-10-09T08:43:08;16.27;;;9.30;;
79064;SDS011;68469;51.502;7.462;2023-10-09T08:45:40;14.15;;;9.20;;
79064;SDS011;68469;51.502;7.462;2023-10-09T08:48:10;11.95;;;8.80;;
79064;SDS011;68469;51.502;7.462;2023-10-09T08:50:44;16.85;;;8.43;;
79064;SDS011;68469;51.502;7.462;2023-10-09T08:53:11;12.23;;;8.18;;
79064;SDS011;68469;51.502;7.462;2023-10-09T08:55:38;14.60;;;8.57;;
79064;SDS011;68469;51.502;7.462;2023-10-09T08:58:04;12.98;;;8.70;;
79064;SDS011;68469;51.502;7.462;2023-10-09T09:00:38;12.02;;;8.93;;
79064;SDS011;68469;51.502;7.462;2023-10-09T09:03:08;13.27;;;8.40;;
79064;SDS011;68469;51.502;7.462;2023-10-09T09:05:33;15.82;;;8.75;;
79064;SDS011;68469;51.502;7.462;2023-10-09T09:08:01;15.23;;;8.52;;
79064;SDS011;68469;51.502;7.462;2023-10-09T09:10:30;13.18;;;8.88;;
79064;SDS011;68469;51.502;7.462;2023-10-09T09:13:14;13.25;;;9.02;;
79064;SDS011;68469;51.502;7.462;2023-10-09T09:15:46;13.05;;;8.57;;
79064;SDS011;68469;51.502;7.462;2023-10-09T09:18:12;10.80;;;8.45;;
79064;SDS011;68469;51.502;7.462;2023-10-09T09:20:42;13.52;;;8.73;;
79064;SDS011;68469;51.502;7.462;2023-10-09T09:23:11;15.77;;;9.48;;
79064;SDS011;68469;51.502;7.462;2023-10-09T09:30:46;12.73;;;8.38;;
79064;SDS011;68469;51.502;7.462;2023-10-09T09:36:05;12.70;;;7.65;;
79064;SDS011;68469;51.502;7.462;2023-10-09T09:38:32;12.43;;;7.82;;
79064;SDS011;68469;51.502;7.462;2023-10-09T09:41:15;11.82;;;7.82;;
79064;SDS011;68469;51.502;7.462;2023-10-09T09:44:07;10.68;;;7.53;;
79064;SDS011;68469;51.502;7.462;2023-10-09T09:46:39;10.70;;;7.07;;
79064;SDS011;68469;51.502;7.462;2023-10-09T09:49:07;11.90;;;7.60;;
79064;SDS011;68469;51.502;7.462;2023-10-09T09:51:44;13.88;;;8.15;;
79064;SDS011;68469;51.502;7.462;2023-10-09T09:54:15;12.10;;;7.55;;
79064;SDS011;68469;51.502;7.462;2023-10-09T09:56:43;12.93;;;7.90;;
79064;SDS011;68469;51.502;7.462;2023-10-09T09:59:15;13.00;;;8.35;;
79064;SDS011;68469;51.502;7.462;2023-10-09T10:01:47;14.70;;;7.53;;
79064;SDS011;68469;51.502;7.462;2023-10-09T10:04:22;12.73;;;7.28;;
79064;SDS011;68469;51.502;7.462;2023-10-09T10:06:51;12.43;;;6.85;;
79064;SDS011;68469;51.502;7.462;2023-10-09T10:09:53;12.55;;;7.13;;
79064;SDS011;68469;51.502;7.462;2023-10-09T10:12:13;12.38;;;7.00;;
79064;SDS011;68469;51.502;7.462;2023-10-09T10:14:59;12.68;;;7.32;;
79064;SDS011;68469;51.502;7.462;2023-10-09T10:17:35;12.13;;;7.35;;
79064;SDS011;68469;51.502;7.462;2023-10-09T10:20:18;14.77;;;7.95;;
79064;SDS011;68469;51.502;7.462;2023-10-09T10:22:44;12.05;;;6.72;;
79064;SDS011;68469;51.502;7.462;2023-10-09T10:28:15;12.73;;;7.30;;
79064;SDS011;68469;51.502;7.462;2023-10-09T10:31:06;11.88;;;6.72;;
79064;SDS011;68469;51.502;7.462;2023-10-09T10:36:21;11.80;;;6.50;;
79064;SDS011;68469;51.502;7.462;2023-10-09T10:41:36;14.52;;;7.40;;
79064;SDS011;68469;51.502;7.462;2023-10-09T10:44:16;10.95;;;7.47;;
79064;SDS011;68469;51.502;7.462;2023-10-09T10:46:59;14.90;;;7.53;;
79064;SDS011;68469;51.502;7.462;2023-10-09T10:49:26;8.93;;;6.35;;
79064;SDS011;68469;51.502;7.462;2023-10-09T10:52:02;10.60;;;6.65;;
79064;SDS011;68469;51.502;7.462;2023-10-09T10:54:42;9.75;;;6.40;;
79064;SDS011;68469;51.502;7.462;2023-10-09T10:57:15;12.68;;;7.03;;
79064;SDS011;68469;51.502;7.462;2023-10-09T10:59:45;11.95;;;7.40;;
79064;SDS011;68469;51.502;7.462;2023-10-09T11:02:11;10.15;;;6.50;;
79064;SDS011;68469;51.502;7.462;2023-10-09T11:04:37;13.13;;;7.00;;
79064;SDS011;68469;51.502;7.462;2023-10-09T11:07:09;13.30;;;7.05;;
79064;SDS011;68469;51.502;7.462;2023-10-09T11:09:45;14.02;;;7.00;;
79064;SDS011;68469;51.502;7.462;2023-10-09T11:12:29;9.60;;;6.40;;
79064;SDS011;68469;51.502;7.462;2023-10-09T11:15:29;9.90;;;7.25;;
79064;SDS011;68469;51.502;7.462;2023-10-09T11:18:38;10.27;;;6.15;;
79064;SDS011;68469;51.502;7.462;2023-10-09T11:21:08;9.60;;;5.85;;
79064;SDS011;68469;51.502;7.462;2023-10-09T11:23:34;11.95;;;6.07;;
79064;SDS011;68469;51.502;7.462;2023-10-09T11:26:01;12.10;;;6.68;;
79064;SDS011;68469;51.502;7.462;2023-10-09T11:29:05;11.48;;;6.53;;
79064;SDS011;68469;51.502;7.462;2023-10-09T11:32:00;11.55;;;6.60;;
79064;SDS011;68469;51.502;7.462;2023-10-09T11:34:26;13.05;;;6.20;;
79064;SDS011;68469;51.502;7.462;2023-10-09T11:39:29;14.13;;;7.18;;
79064;SDS011;68469;51.502;7.462;2023-10-09T11:42:06;11.98;;;6.72;;
79064;SDS011;68469;51.502;7.462;2023-10-09T11:44:40;11.93;;;7.13;;
79064;SDS011;68469;51.502;7.462;2023-10-09T11:47:09;10.70;;;6.50;;
79064;SDS011;68469;51.502;7.462;2023-10-09T11:49:56;13.13;;;6.85;;
79064;SDS011;68469;51.502;7.462;2023-10-09T11:52:26;9.40;;;6.57;;
79064;SDS011;68469;51.502;7.462;2023-10-09T11:55:12;11.50;;;6.57;;
79064;SDS011;68469;51.502;7.462;2023-10-09T11:57:40;11.25;;;6.22;;
79064;SDS011;68469;51.502;7.462;2023-10-09T12:00:06;12.77;;;7.28;;
79064;SDS011;68469;51.502;7.462;2023-10-09T12:02:50;12.60;;;6.40;;
79064;SDS011;68469;51.502;7.462;2023-10-09T12:05:15;14.13;;;7.35;;
79064;SDS011;68469;51.502;7.462;2023-10-09T12:07:44;21.23;;;7.57;;
79064;SDS011;68469;51.502;7.462;2023-10-09T12:10:10;15.00;;;7.20;;
79064;SDS011;68469;51.502;7.462;2023-10-09T12:12:40;13.68;;;8.10;;
79064;SDS011;68469;51.502;7.462;2023-10-09T12:15:11;15.85;;;7.43;;
79064;SDS011;68469;51.502;7.462;2023-10-09T12:17:42;15.13;;;7.65;;
79064;SDS011;68469;51.502;7.462;2023-10-09T12:20:15;15.32;;;7.60;;
79064;SDS011;68469;51.502;7.462;2023-10-09T12:23:00;19.42;;;8.55;;
79064;SDS011;68469;51.502;7.462;2023-10-09T12:25:29;15.52;;;8.00;;
79064;SDS011;68469;51.502;7.462;2023-10-09T12:27:56;14.00;;;8.20;;
79064;SDS011;68469;51.502;7.462;2023-10-09T12:30:23;13.63;;;8.40;;
79064;SDS011;68469;51.502;7.462;2023-10-09T12:32:52;12.43;;;7.35;;
79064;SDS011;68469;51.502;7.462;2023-10-09T12:35:19;12.93;;;7.00;;
79064;SDS011;68469;51.502;7.462;2023-10-09T12:37:44;14.68;;;7.82;;
79064;SDS011;68469;51.502;7.462;2023-10-09T12:40:11;14.35;;;8.60;;
79064;SDS011;68469;51.502;7.462;2023-10-09T12:42:36;14.85;;;7.50;;
79064;SDS011;68469;51.502;7.462;2023-10-09T12:45:05;15.95;;;7.85;;
79064;SDS011;68469;51.502;7.462;2023-10-09T12:47:34;13.65;;;7.75;;
79064;SDS011;68469;51.502;7.462;2023-10-09T12:50:03;11.90;;;6.85;;
79064;SDS011;68469;51.502;7.462;2023-10-09T12:52:35;10.13;;;7.05;;
79064;SDS011;68469;51.502;7.462;2023-10-09T12:55:02;14.57;;;8.25;;
79064;SDS011;68469;51.502;7.462;2023-10-09T12:57:33;20.08;;;9.00;;
79064;SDS011;68469;51.502;7.462;2023-10-09T12:59:59;14.70;;;8.57;;
79064;SDS011;68469;51.502;7.462;2023-10-09T13:02:24;12.57;;;7.50;;
79064;SDS011;68469;51.502;7.462;2023-10-09T13:04:56;16.50;;;8.48;;
79064;SDS011;68469;51.502;7.462;2023-10-09T13:07:22;16.33;;;8.07;;
79064;SDS011;68469;51.502;7.462;2023-10-09T13:09:48;14.40;;;8.50;;
79064;SDS011;68469;51.502;7.462;2023-10-09T13:12:32;13.38;;;7.45;;
79064;SDS011;68469;51.502;7.462;2023-10-09T13:14:58;14.60;;;8.65;;
79064;SDS011;68469;51.502;7.462;2023-10-09T13:17:24;15.27;;;8.40;;
79064;SDS011;68469;51.502;7.462;2023-10-09T13:19:53;15.38;;;8.48;;
79064;SDS011;68469;51.502;7.462;2023-10-09T13:22:19;13.20;;;8.35;;
79064;SDS011;68469;51.502;7.462;2023-10-09T13:24:46;13.15;;;8.35;;
79064;SDS011;68469;51.502;7.462;2023-10-09T13:27:13;14.55;;;7.72;;
79064;SDS011;68469;51.502;7.462;2023-10-09T13:29:46;16.55;;;9.07;;
79064;SDS011;68469;51.502;7.462;2023-10-09T13:32:12;14.98;;;8.18;;
79064;SDS011;68469;51.502;7.462;2023-10-09T13:34:40;12.52;;;7.90;;
79064;SDS011;68469;51.502;7.462;2023-10-09T13:37:13;12.32;;;7.63;;
79064;SDS011;68469;51.502;7.462;2023-10-09T13:39:44;15.85;;;8.90;;
79064;SDS011;68469;51.502;7.462;2023-10-09T13:42:19;17.05;;;8.20;;
79064;SDS011;68469;51.502;7.462;2023-10-09T13:44:48;14.25;;;7.45;;
79064;SDS011;68469;51.502;7.462;2023-10-09T13:47:13;15.05;;;7.78;;
79064;SDS011;68469;51.502;7.462;2023-10-09T13:49:47;13.13;;;7.90;;
79064;SDS011;68469;51.502;7.462;2023-10-09T13:52:16;15.63;;;7.97;;
79064;SDS011;68469;51.502;7.462;2023-10-09T13:54:46;11.65;;;7.15;;
79064;SDS011;68469;51.502;7.462;2023-10-09T13:57:15;18.10;;;8.25;;
79064;SDS011;68469;51.502;7.462;2023-10-09T13:59:41;13.30;;;8.63;;
79064;SDS011;68469;51.502;7.462;2023-10-09T14:02:17;13.90;;;8.43;;
79064;SDS011;68469;51.502;7.462;2023-10-09T14:04:44;16.58;;;8.30;;
79064;SDS011;68469;51.502;7.462;2023-10-09T14:07:11;14.55;;;8.57;;
79064;SDS011;68469;51.502;7.462;2023-10-09T14:09:41;11.82;;;8.68;;
79064;SDS011;68469;51.502;7.462;2023-10-09T14:12:20;14.65;;;8.10;;
79064;SDS011;68469;51.502;7.462;2023-10-09T14:14:54;13.43;;;7.60;;
79064;SDS011;68469;51.502;7.462;2023-10-09T14:17:21;18.13;;;8.30;;
79064;SDS011;68469;51.502;7.462;2023-10-09T14:19:53;15.50;;;8.23;;
79064;SDS011;68469;51.502;7.462;2023-10-09T14:22:21;14.25;;;7.65;;
79064;SDS011;68469;51.502;7.462;2023-10-09T14:24:51;16.48;;;8.52;;
79064;SDS011;68469;51.502;7.462;2023-10-09T14:27:20;12.75;;;7.30;;
79064;SDS011;68469;51.502;7.462;2023-10-09T14:29:50;15.18;;;8.38;;
79064;SDS011;68469;51.502;7.462;2023-10-09T14:32:21;17.13;;;8.43;;
79064;SDS011;68469;51.502;7.462;2023-10-09T14:34:54;14.68;;;8.45;;
79064;SDS011;68469;51.502;7.462;2023-10-09T14:37:20;15.15;;;7.72;;
79064;SDS011;68469;51.502;7.462;2023-10-09T14:39:46;12.13;;;8.13;;
79064;SDS011;68469;51.502;7.462;2023-10-09T14:42:19;17.67;;;8.05;;
79064;SDS011;68469;51.502;7.462;2023-10-09T14:44:45;12.55;;;7.88;;
79064;SDS011;68469;51.502;7.462;2023-10-09T14:47:11;16.35;;;8.50;;
79064;SDS011;68469;51.502;7.462;2023-10-09T14:49:39;14.57;;;8.77;;
79064;SDS011;68469;51.502;7.462;2023-10-09T14:52:11;16.20;;;8.60;;
79064;SDS011;68469;51.502;7.462;2023-10-09T14:54:41;14.90;;;8.55;;
79064;SDS011;68469;51.502;7.462;2023-10-09T14:57:11;13.02;;;7.63;;
79064;SDS011;68469;51.502;7.462;2023-10-09T14:59:38;13.93;;;7.93;;
79064;SDS011;68469;51.502;7.462;2023-10-09T15:02:05;14.38;;;8.35;;
79064;SDS011;68469;51.502;7.462;2023-10-09T15:04:31;12.98;;;7.53;;
79064;SDS011;68469;51.502;7.462;2023-10-09T15:07:00;16.33;;;8.13;;
79064;SDS011;68469;51.502;7.462;2023-10-09T15:09:26;15.27;;;8.00;;
79064;SDS011;68469;51.502;7.462;2023-10-09T15:11:56;16.40;;;8.27;;
79064;SDS011;68469;51.502;7.462;2023-10-09T15:14:23;18.05;;;8.70;;
79064;SDS011;68469;51.502;7.462;2023-10-09T15:16:48;15.95;;;9.20;;
79064;SDS011;68469;51.502;7.462;2023-10-09T15:19:15;14.20;;;7.65;;
79064;SDS011;68469;51.502;7.462;2023-10-09T15:21:41;16.67;;;8.73;;
79064;SDS011;68469;51.502;7.462;2023-10-09T15:24:11;15.15;;;8.98;;
79064;SDS011;68469;51.502;7.462;2023-10-09T15:26:41;14.00;;;8.52;;
79064;SDS011;68469;51.502;7.462;2023-10-09T15:29:07;13.35;;;8.98;;
79064;SDS011;68469;51.502;7.462;2023-10-09T15:31:35;15.60;;;9.45;;
79064;SDS011;68469;51.502;7.462;2023-10-09T15:34:01;13.70;;;7.93;;
79064;SDS011;68469;51.502;7.462;2023-10-09T15:36:27;14.13;;;8.13;;
79064;SDS011;68469;51.502;7.462;2023-10-09T15:38:56;12.55;;;7.78;;
79064;SDS011;68469;51.502;7.462;2023-10-09T15:41:27;15.82;;;9.55;;
79064;SDS011;68469;51.502;7.462;2023-10-09T15:43:57;13.63;;;8.52;;
79064;SDS011;68469;51.502;7.462;2023-10-09T15:46:23;13.38;;;8.35;;
79064;SDS011;68469;51.502;7.462;2023-10-09T15:48:50;14.15;;;9.18;;
79064;SDS011;68469;51.502;7.462;2023-10-09T15:51:18;14.90;;;8.68;;
79064;SDS011;68469;51.502;7.462;2023-10-09T15:53:44;15.18;;;8.18;;
79064;SDS011;68469;51.502;7.462;2023-10-09T15:56:10;12.68;;;8.65;;
79064;SDS011;68469;51.502;7.462;2023-10-09T15:58:42;17.85;;;10.20;;